Tiempo atmosférico en la estación meteorológica de Alpedrete, Madrid (924 m.)



Fecha
DESCASC
Temp. máxima en grados centígrados (hora)
DESCASC
Temp. mínima en grados centígrados (hora)
DESCASC
Temp. media en grados centígrados
DESCASC
Racha de viento máxima en m/sg (hora)
DESCASC
Velocidad máxima media en intervalos de 10 minutos(hora)
DESCASC
Precipitaciones diarias en mm
DESCASC
Precipitaciones de 00:00 a 06:00 en mm
DESCASC
Precipitaciones de 06:00 a 12:00 en mm
DESCASC
Precipitaciones de 12:00 a 18:00 en mm
DESCASC
Precipitaciones de 18:00 a 24:00 en mm
DESCASC
17-09-2020 23.5 (14:30) 15.2 (08:00) 19.3 11.11 (20:10) 4.72 (20:00) 8.4 1.2 0.2 0 7
16-09-2020 29.8 (18:00) 15 (07:50) 22.4 6.67 (14:00) 3.33 (11:40) 1 0 0 0 1
15-09-2020 27.7 (18:10) 15.6 (08:00) 21.7 6.94 (02:20) 2.78 (11:40) 0.6 0 0.6 0 0
14-09-2020 28.7 (17:30) 18.8 (00:00) 23.8 7.5 (05:20) 3.61 (04:30) 0 0 0 0 0
13-09-2020 31.5 (16:50) 16.7 (00:00) 24.1 10.28 (01:40) 5.83 (02:00) 0 0 0 0 0
12-09-2020 32.4 (17:00) 16.7 (00:00) 24.6 7.22 (02:00) 4.17 (02:10) 0 0 0 0 0
11-09-2020 31.7 (17:00) 14.1 (00:00) 22.9 8.33 (01:30) 3.89 (01:40) 0 0 0 0 0
10-09-2020 30.7 (19:10) 12.8 (00:00) 21.8 6.94 (02:20) 4.17 (02:20) 0 0 0 0 0
09-09-2020 28.9 (17:20) 11.4 (00:00) 20.1 7.5 (00:50) 4.44 (00:50) 0 0 0 0 0
08-09-2020 25.1 (18:30) 10.1 (00:00) 17.6 7.5 (10:00) 4.44 (10:00) 0 0 0 0 0
07-09-2020 26.7 (16:50) 12.1 (08:10) 19.4 8.33 (09:40) 4.72 (04:40) 0 0 0 0 0
06-09-2020 31.8 (15:50) 15.5 (00:00) 23.6 8.61 (00:40) 5.28 (22:50) 0 0 0 0 0
05-09-2020 33.1 (17:50) 14.3 (00:00) 23.7 7.22 (15:40) 2.78 (15:50) 0 0 0 0 0
04-09-2020 31.7 (16:50) 14.5 (00:00) 23.1 5.83 (16:20) 2.22 (16:20) 0 0 0 0 0
03-09-2020 31.3 (17:40) 12.6 (00:00) 21.9 6.11 (15:20) 2.78 (14:50) 0 0 0 0 0
02-09-2020 29.3 (17:20) 12.8 (00:00) 21 8.89 (02:40) 5.83 (02:40) 0 0 0 0 0
01-09-2020 27.8 (17:40) 12.9 (00:00) 20.3 5.28 (16:30) 2.78 (16:30) 0 0 0 0 0
31-08-2020 25.2 (19:30) 7.4 (00:00) 16.3 6.11 (15:00) 2.78 (17:40) 0 0 0 0 0
30-08-2020 22.9 (17:50) 7.6 (00:00) 15.2 10.83 (16:00) 4.72 (19:30) 0 0 0 0 0
29-08-2020 21.5 (16:50) 12.1 (00:00) 16.8 14.72 (00:20) 7.78 (00:20) 0 0 0 0 0
28-08-2020 27.8 (17:20) 18.5 (00:00) 23.1 14.44 (23:50) 8.06 (23:40) 0 0 0 0 0
27-08-2020 36.5 (15:50) 21.5 (00:00) 29 10.83 (23:59) 6.67 (23:59) 0 0 0 0 0
26-08-2020 36.1 (18:10) 18.5 (00:00) 27.3 9.17 (01:50) 5.28 (01:50) 0 0 0 0 0
25-08-2020 34.5 (18:20) 16.9 (00:00) 25.7 7.5 (17:40) 3.06 (17:00) 0 0 0 0 0
24-08-2020 33.2 (18:40) 15.7 (00:00) 24.5 7.22 (18:00) 3.33 (10:00) 0 0 0 0 0
23-08-2020 32.5 (17:30) 15.1 (00:00) 23.8 7.5 (00:10) 4.17 (00:10) 0 0 0 0 0
22-08-2020 31.6 (16:10) 15.1 (00:00) 23.4 8.89 (02:20) 4.72 (01:20) 0 0 0 0 0
21-08-2020 30.2 (16:20) 15.7 (00:00) 23 9.72 (17:00) 5.28 (20:00) 0 0 0 0 0

Gráficas

Temp. máximas Temp. mínimas Temp. medias Precipitaciones Rachas de viento máximas Velocidades máximas media en intervalos de 10 minutos

Datos horarios

Fecha y hora oficial Temperatura (ºC) Velocidad del viento (km/h) Dirección del viento Racha (km/h) Dirección de racha Precipitación (mm) Presión (hPa) Tendencia (hPa) Humedad (%)
2020-09-19 23:00:00 15.1 3 Noroeste 6 Noroeste 0 -- -- 84
2020-09-19 22:00:00 15.1 0 Calma 5 Norte 0 -- -- 90
2020-09-19 21:00:00 15.4 0 Calma 10 Sur 0 -- -- 85
2020-09-19 20:00:00 15.8 8 Sur 16 Sudoeste 0 -- -- 81
2020-09-19 19:00:00 17.2 6 Sudoeste 21 Sur 0 -- -- 75
2020-09-19 18:00:00 16.5 9 Sur 19 Sur 0 -- -- 79
2020-09-19 17:00:00 16.6 9 Sudoeste 26 Sudoeste 0 -- -- 80
2020-09-19 16:00:00 16.2 6 Sudoeste 16 Sudoeste 0.2 -- -- 91
2020-09-19 15:00:00 14.7 10 Sur 24 Sur 0.2 -- -- 93
2020-09-19 14:00:00 15.4 9 Sudoeste 29 Sudoeste 0.2 -- -- 89
2020-09-19 13:00:00 14.5 12 Sudoeste 30 Sur 0.2 -- -- 92
2020-09-19 12:00:00 15.1 9 Sudoeste 23 Sur 0 -- -- 93
2020-09-19 11:00:00 13.5 8 Sudoeste 26 Sur 0.2 -- -- 97
2020-09-19 10:00:00 13.1 8 Sudoeste 21 Sudoeste 0 -- -- 98
2020-09-19 09:00:00 12.9 12 Sudoeste 26 Sur 0.2 -- -- 98
2020-09-19 08:00:00 12.8 9 Sur 24 Sur 1 -- -- 98
2020-09-19 07:00:00 12.8 10 Sur 22 Sur 1 -- -- 98
2020-09-19 06:00:00 12.9 6 Sur 21 Sur 0.8 -- -- 98
2020-09-19 05:00:00 13.1 5 Sur 13 Sur 0.6 -- -- 98
2020-09-19 04:00:00 13.1 4 Sudeste 13 Sudeste 0 -- -- 98
2020-09-19 03:00:00 13.1 6 Sudeste 18 Sudoeste 0.4 -- -- 98
2020-09-19 02:00:00 13.4 7 Sur 33 Sudeste 4 -- -- 97
2020-09-19 01:00:00 13.6 11 Sudeste 31 Sudeste 4.6 -- -- 96
2020-09-19 00:00:00 13.5 7 Este 25 Este 4.4 -- -- 94
2020-09-18 23:00:00 13.6 11 Este 22 Este 0 -- -- 90
2020-09-18 22:00:00 13.3 5 Este 13 Este 0 -- -- 92
2020-09-18 21:00:00 13.2 3 Sur 10 Sudeste 0 -- -- 91
2020-09-18 20:00:00 14.5 6 Este 11 Este 0 -- -- 86
2020-09-18 19:00:00 13.6 5 Norte 39 Sudoeste 6.8 -- -- 97
2020-09-18 18:00:00 14 7 Sur 22 Sudeste 3.2 -- -- 94
2020-09-18 17:00:00 14.8 3 Norte 28 Este 2.8 -- -- 90
2020-09-18 16:00:00 15.2 5 Sudeste 23 Sur 5.4 -- -- 93
2020-09-18 15:00:00 19.4 9 Sur 26 Sudeste 0 -- -- 62
2020-09-18 14:00:00 19.7 12 Sudeste 19 Sudeste 0 -- -- 67
2020-09-18 13:00:00 18.7 8 Sur 15 Sur 0 -- -- 71
2020-09-18 12:00:00 17.1 9 Sudeste 14 Sudeste 0 -- -- 76
2020-09-18 11:00:00 15.5 7 Sur 28 Sudoeste 0 -- -- 85
2020-09-18 10:00:00 16.3 13 Sudeste 28 Sudeste 0 -- -- 81
2020-09-18 09:00:00 15.8 6 Sudeste 18 Este 0 -- -- 87
2020-09-18 08:00:00 15.6 7 Sudeste 12 Este 0 -- -- 92
2020-09-18 07:00:00 15.6 5 Sur 32 Sudeste 0 -- -- 86
2020-09-18 06:00:00 16.5 15 Sudeste 28 Sudeste 0 -- -- 92
2020-09-18 05:00:00 16.4 10 Sudeste 35 Sudeste 0 -- -- 94
2020-09-18 04:00:00 16.4 18 Sudeste 32 Sudeste 3.2 -- -- 93
2020-09-18 03:00:00 16 10 Este 22 Este 0.6 -- -- 91
2020-09-18 02:00:00 16.1 9 Este 19 Sudeste 0.2 -- -- 91
2020-09-18 01:00:00 15.5 3 Noroeste 7 Sur 1 -- -- 95
2020-09-18 00:00:00 15.7 4 Noroeste 13 Sudoeste 0.6 -- -- 94
2020-09-17 23:00:00 15.7 7 Oeste 24 Oeste 4.8 -- -- 93
2020-09-17 22:00:00 17 2 Nordeste 20 Sudeste 0.2 -- -- 86
2020-09-17 21:00:00 17.1 8 Este 40 Oeste 1.4 -- -- 86
2020-09-17 20:00:00 20.7 17 Sudeste 40 Sudoeste 0 -- -- 63
2020-09-17 19:00:00 22 7 Sudeste 20 Sudeste 0 -- -- 60
2020-09-17 18:00:00 23.3 10 Sudeste 26 Sudoeste 0 -- -- 55
2020-09-17 17:00:00 23.2 12 Sur 32 Sudoeste 0 -- -- 56
2020-09-17 16:00:00 22.3 10 Sudeste 24 Sur 0 -- -- 58
2020-09-17 15:00:00 22.5 10 Sudeste 22 Sudeste 0 -- -- 59
2020-09-17 14:00:00 22.2 12 Sudeste 23 Sudeste 0 -- -- 60
2020-09-17 13:00:00 20.7 7 Sur 19 Sudeste 0 -- -- 69
2020-09-17 12:00:00 19.6 8 Este 14 Este 0 -- -- 73
2020-09-17 11:00:00 17.9 5 Este 14 Este 0 -- -- 78
2020-09-17 10:00:00 16.4 0 Calma 11 Sudeste 0 -- -- 89
2020-09-17 09:00:00 15.8 4 Este 12 Este 0 -- -- 92
2020-09-17 08:00:00 15.2 2 Oeste 13 Sudoeste 0.2 -- -- 92
2020-09-17 07:00:00 16.4 6 Sur 16 Sudeste 0 -- -- 85
2020-09-17 06:00:00 16.6 5 Este 8 Nordeste 0 -- -- 83
2020-09-17 05:00:00 17 0 Calma 8 Este 0.2 -- -- 83
2020-09-17 04:00:00 16.7 3 Este 8 Este 0.4 -- -- 85
2020-09-17 03:00:00 17.5 3 Nordeste 19 Este 0 -- -- 77
2020-09-17 02:00:00 17.4 6 Este 26 Oeste 0.4 -- -- 78
2020-09-17 01:00:00 17.8 5 Sudoeste 27 Norte 0.2 -- -- 74
2020-09-17 00:00:00 18.1 3 Norte 22 Sudeste 1 -- -- 80
2020-09-16 23:00:00 23.1 4 Noroeste 20 Oeste 0 -- -- 45
2020-09-16 22:00:00 25 5 Este 12 Este 0 -- -- 40
2020-09-16 21:00:00 25.4 6 Este 10 Este 0 -- -- 38
2020-09-16 20:00:00 26.1 5 Sudeste 14 Sudeste 0 -- -- 36
2020-09-16 19:00:00 27.5 5 Sur 20 Sudoeste 0 -- -- 34
2020-09-16 18:00:00 29.8 4 Sudoeste 22 Sur 0 -- -- 31
2020-09-16 17:00:00 27.6 11 Sudeste 21 Sudeste 0 -- -- 33
2020-09-16 16:00:00 29.3 5 Sudeste 22 Sudeste 0 -- -- 32
2020-09-16 15:00:00 28.5 6 Sur 22 Sur 0 -- -- 37
2020-09-16 14:00:00 27.1 10 Sudeste 24 Este 0 -- -- 38
2020-09-16 13:00:00 26.6 9 Este 19 Este 0 -- -- 41
2020-09-16 12:00:00 26.5 6 Este 20 Este 0 -- -- 42
2020-09-16 11:00:00 23.2 11 Este 19 Este 0 -- -- 48
2020-09-16 10:00:00 22 6 Este 12 Este 0 -- -- 51
2020-09-16 09:00:00 17.5 3 Noroeste 7 Norte 0 -- -- 66
2020-09-16 08:00:00 15.2 3 Noroeste 6 Noroeste 0 -- -- 73
2020-09-16 07:00:00 15.5 0 Calma 6 Noroeste 0 -- -- 72
2020-09-16 06:00:00 15.7 0 Calma 4 Norte 0 -- -- 72
2020-09-16 05:00:00 16.2 3 Norte 7 Norte 0 -- -- 69
2020-09-16 04:00:00 16.4 0 Calma 4 Norte 0 -- -- 70
2020-09-16 03:00:00 17.1 0 Calma 6 Noroeste 0 -- -- 65
2020-09-16 02:00:00 16.6 0 Calma 3 Noroeste 0 -- -- 68
2020-09-16 01:00:00 17.4 0 Calma 4 Norte 0 -- -- 67
2020-09-16 00:00:00 17.8 0 Calma 4 Norte 0 -- -- 65
2020-09-15 23:00:00 18.6 0 Calma 5 Noroeste 0 -- -- 61
2020-09-15 22:00:00 19.7 0 Calma 8 Noroeste 0 -- -- 58
2020-09-15 21:00:00 21.8 3 Norte 5 Sudoeste 0 -- -- 51
2020-09-15 20:00:00 25.7 3 Sudoeste 12 Sur 0 -- -- 41
2020-09-15 19:00:00 27.1 5 Sur 19 Sudoeste 0 -- -- 38
2020-09-15 18:00:00 27 8 Sur 20 Sudoeste 0 -- -- 38
2020-09-15 17:00:00 26.1 8 Sudoeste 24 Sudoeste 0 -- -- 40
2020-09-15 16:00:00 27.1 8 Sur 22 Sudeste 0 -- -- 42
2020-09-15 15:00:00 25.7 8 Sudeste 20 Sudeste 0 -- -- 48
2020-09-15 14:00:00 23.7 6 Sudeste 14 Sur 0 -- -- 57
2020-09-15 13:00:00 22.8 5 Este 15 Este 0 -- -- 60
2020-09-15 12:00:00 21.8 6 Este 17 Este 0 -- -- 64
2020-09-15 11:00:00 19 8 Este 19 Este 0.2 -- -- 74
2020-09-15 10:00:00 18.3 9 Este 17 Este 0 -- -- 82
2020-09-15 09:00:00 17.6 0 Calma 6 Norte 0 -- -- 89
2020-09-15 08:00:00 15.6 3 Sudoeste 13 Sudoeste 0.4 -- -- 92
2020-09-15 07:00:00 16.5 5 Oeste 14 Sudoeste 0 -- -- 88
2020-09-15 06:00:00 17.4 2 Noroeste 4 Sudoeste 0 -- -- 79
2020-09-15 05:00:00 17.7 0 Calma 8 Norte 0 -- -- 78
2020-09-15 04:00:00 17.7 3 Noroeste 8 Oeste 0 -- -- 77
2020-09-15 03:00:00 18.6 3 Noroeste 25 Sudeste 0 -- -- 71
2020-09-15 02:00:00 19.1 4 Este 9 Este 0 -- -- 57
2020-09-15 01:00:00 20.8 0 Calma 8 Noroeste 0 -- -- 51
2020-09-15 00:00:00 20.9 6 Norte 8 Noroeste 0 -- -- 50
2020-09-14 23:00:00 22.5 2 Este 10 Este 0 -- -- 45
2020-09-14 22:00:00 23.9 4 Este 26 Sudeste 0 -- -- 41
2020-09-14 21:00:00 25.5 6 Este 15 Este 0 -- -- 37
2020-09-14 20:00:00 26.9 7 Sudeste 20 Este 0 -- -- 34
2020-09-14 19:00:00 27.5 8 Este 22 Sudeste 0 -- -- 34
2020-09-14 18:00:00 26.8 8 Sudeste 21 Este 0 -- -- 35
2020-09-14 17:00:00 28.3 9 Sudeste 26 Este 0 -- -- 34
2020-09-14 16:00:00 26.6 9 Este 24 Este 0 -- -- 37
2020-09-14 15:00:00 26 10 Este 23 Este 0 -- -- 38
2020-09-14 14:00:00 24.9 9 Este 19 Este 0 -- -- 40
2020-09-14 13:00:00 23.3 10 Sudeste 21 Sudeste 0 -- -- 45
2020-09-14 12:00:00 22.2 10 Este 20 Este 0 -- -- 48
2020-09-14 11:00:00 21.7 12 Este 20 Este 0 -- -- 50
2020-09-14 10:00:00 20.7 9 Este 18 Sudeste 0 -- -- 54
2020-09-14 09:00:00 20.2 8 Este 17 Este 0 -- -- 56
2020-09-14 08:00:00 19.1 9 Este 17 Este 0 -- -- 59
2020-09-14 07:00:00 19.8 8 Este 24 Nordeste 0 -- -- 57
2020-09-14 06:00:00 20.1 11 Este 27 Este 0 -- -- 56
2020-09-14 05:00:00 20.1 11 Este 22 Este 0 -- -- 55
2020-09-14 04:00:00 20.9 7 Este 18 Nordeste 0 -- -- 52
2020-09-14 03:00:00 21.3 5 Este 14 Este 0 -- -- 51
2020-09-14 02:00:00 21.7 4 Este 9 Sudeste 0 -- -- 47
2020-09-14 01:00:00 20.8 2 Norte 4 Norte 0 -- -- 45
2020-09-14 00:00:00 20.6 2 Norte 6 Norte 0 -- -- 43
2020-09-13 23:00:00 21.7 2 Noroeste 4 Norte 0 -- -- 41
2020-09-13 22:00:00 23.1 0 Calma 4 Este 0 -- -- 38
2020-09-13 21:00:00 25.2 0 Calma 10 Sur 0 -- -- 33
2020-09-13 20:00:00 28.2 5 Sur 17 Sur 0 -- -- 29
2020-09-13 19:00:00 28.8 10 Sudeste 22 Sudeste 0 -- -- 28
2020-09-13 18:00:00 29.5 6 Sur 22 Sudeste 0 -- -- 27
2020-09-13 17:00:00 31.2 10 Sur 24 Sudeste 0 -- -- 27
2020-09-13 16:00:00 30.1 8 Sudeste 23 Sudeste 0 -- -- 29
2020-09-13 15:00:00 29 8 Sur 21 Sur 0 -- -- 31
2020-09-13 14:00:00 27.4 9 Sudeste 21 Sudeste 0 -- -- 34
2020-09-13 13:00:00 28.2 9 Este 18 Sudeste 0 -- -- 33
2020-09-13 12:00:00 26.2 10 Este 21 Nordeste 0 -- -- 37
2020-09-13 11:00:00 24.4 11 Este 19 Este 0 -- -- 41
2020-09-13 10:00:00 22.8 9 Este 18 Este 0 -- -- 48
2020-09-13 09:00:00 20.3 3 Noroeste 6 Noroeste 0 -- -- 53
2020-09-13 08:00:00 16.7 0 Calma 7 Noroeste 0 -- -- 62
2020-09-13 07:00:00 17.7 2 Norte 13 Nordeste 0 -- -- 58
2020-09-13 06:00:00 19.6 3 Este 20 Este 0 -- -- 52
2020-09-13 05:00:00 20.7 10 Este 21 Este 0 -- -- 48
2020-09-13 04:00:00 21.4 12 Este 24 Este 0 -- -- 46
2020-09-13 03:00:00 22.3 12 Este 35 Este 0 -- -- 43
2020-09-13 02:00:00 23.1 21 Este 37 Este 0 -- -- 37
2020-09-13 01:00:00 20 4 Este 13 Nordeste 0 -- -- 40
2020-09-13 00:00:00 20.6 0 Calma 5 Norte 0 -- -- 39
2020-09-12 23:00:00 21.1 3 Noroeste 6 Norte 0 -- -- 38
2020-09-12 22:00:00 22.9 2 Norte 10 Noroeste 0 -- -- 37
2020-09-12 21:00:00 25.8 0 Calma 8 Sur 0 -- -- 31
2020-09-12 20:00:00 28.1 4 Sur 17 Sur 0 -- -- 27
2020-09-12 19:00:00 30 3 Sur 14 Sur 0 -- -- 25
2020-09-12 18:00:00 31.8 5 Sur 18 Sudoeste 0 -- -- 24
2020-09-12 17:00:00 32.4 5 Sur 21 Sudeste 0 -- -- 24
2020-09-12 16:00:00 31.2 8 Sur 19 Sur 0 -- -- 25
2020-09-12 15:00:00 30.9 6 Oeste 17 Sudoeste 0 -- -- 25
2020-09-12 14:00:00 30.6 6 Oeste 17 Sudoeste 0 -- -- 25
2020-09-12 13:00:00 29.5 4 Sudeste 14 Sur 0 -- -- 29
2020-09-12 12:00:00 27.3 5 Nordeste 21 Este 0 -- -- 33
2020-09-12 11:00:00 24.1 12 Este 22 Este 0 -- -- 38
2020-09-12 10:00:00 22.3 14 Este 23 Este 0 -- -- 40
2020-09-12 09:00:00 20.5 2 Nordeste 11 Norte 0 -- -- 43
2020-09-12 08:00:00 17 2 Norte 12 Nordeste 0 -- -- 49
2020-09-12 07:00:00 18.5 3 Nordeste 7 Norte 0 -- -- 45
2020-09-12 06:00:00 18.3 3 Norte 6 Nordeste 0 -- -- 45
2020-09-12 05:00:00 19.1 2 Noroeste 9 Norte 0 -- -- 41
2020-09-12 04:00:00 21 3 Norte 12 Oeste 0 -- -- 36
2020-09-12 03:00:00 20.9 3 Noroeste 25 Este 0 -- -- 36
2020-09-12 02:00:00 22.3 13 Este 26 Este 0 -- -- 32
2020-09-12 01:00:00 19.7 3 Noroeste 8 Norte 0 -- -- 43
2020-09-12 00:00:00 20.9 3 Oeste 5 Noroeste 0 -- -- 40
2020-09-11 23:00:00 21.6 2 Nordeste 12 Sudeste 0 -- -- 38
2020-09-11 22:00:00 23.4 0 Calma 12 Norte 0 -- -- 36
2020-09-11 21:00:00 26.6 4 Oeste 15 Oeste 0 -- -- 28
2020-09-11 20:00:00 28.5 10 Oeste 20 Oeste 0 -- -- 26
2020-09-11 19:00:00 29.5 6 Sudoeste 21 Sur 0 -- -- 27
2020-09-11 18:00:00 30.6 9 Sudoeste 21 Sudoeste 0 -- -- 25
2020-09-11 17:00:00 31.7 7 Sudoeste 21 Sudeste 0 -- -- 25
2020-09-11 16:00:00 30.3 8 Sudoeste 24 Sur 0 -- -- 26
2020-09-11 15:00:00 29.8 8 Sudoeste 19 Sur 0 -- -- 26
2020-09-11 14:00:00 28.5 8 Oeste 19 Sur 0 -- -- 27
2020-09-11 13:00:00 28.2 7 Sudeste 15 Sudoeste 0 -- -- 28
2020-09-11 12:00:00 28.1 4 Sur 12 Sur 0 -- -- 29
2020-09-11 11:00:00 26.8 3 Sur 8 Sudoeste 0 -- -- 30
2020-09-11 10:00:00 25.1 0 Calma 5 Norte 0 -- -- 35
2020-09-11 09:00:00 18.9 0 Calma 5 Norte 0 -- -- 47
2020-09-11 08:00:00 14.1 0 Calma 4 Norte 0 -- -- 58
2020-09-11 07:00:00 15 0 Calma 4 Este 0 -- -- 56
2020-09-11 06:00:00 15.5 0 Calma 5 Este 0 -- -- 54
2020-09-11 05:00:00 16.3 0 Calma 9 Nordeste 0 -- -- 51
2020-09-11 04:00:00 16.9 0 Calma 10 Norte 0 -- -- 49
2020-09-11 03:00:00 18.5 5 Norte 10 Norte 0 -- -- 45
2020-09-11 02:00:00 20.2 5 Noroeste 30 Este 0 -- -- 40
2020-09-11 01:00:00 21.8 6 Este 16 Este 0 -- -- 36
2020-09-11 00:00:00 20.5 0 Calma 7 Norte 0 -- -- 39
2020-09-10 23:00:00 22.1 2 Noroeste 6 Sudeste 0 -- -- 36
2020-09-10 22:00:00 23.8 2 Nordeste 11 Norte 0 -- -- 33
2020-09-10 21:00:00 24.5 6 Noroeste 15 Norte 0 -- -- 33
2020-09-10 20:00:00 27.8 9 Noroeste 22 Norte 0 -- -- 28
2020-09-10 19:00:00 30.4 5 Noroeste 15 Oeste 0 -- -- 25
2020-09-10 18:00:00 28.4 5 Sudeste 23 Este 0 -- -- 28
2020-09-10 17:00:00 29.6 8 Sur 21 Sudeste 0 -- -- 27
2020-09-10 16:00:00 28 11 Oeste 19 Oeste 0 -- -- 29
2020-09-10 15:00:00 28.9 5 Sudeste 16 Sudeste 0 -- -- 29
2020-09-10 14:00:00 27.2 8 Sur 17 Sur 0 -- -- 32
2020-09-10 13:00:00 26.5 6 Sur 18 Este 0 -- -- 33
2020-09-10 12:00:00 24.8 6 Sudeste 18 Este 0 -- -- 37
2020-09-10 11:00:00 23.7 4 Este 19 Este 0 -- -- 39
2020-09-10 10:00:00 24.2 0 Calma 5 Sudeste 0 -- -- 36
2020-09-10 09:00:00 16.8 3 Sudeste 8 Norte 0 -- -- 53
2020-09-10 08:00:00 14.2 0 Calma 7 Norte 0 -- -- 58
2020-09-10 07:00:00 13.5 0 Calma 6 Norte 0 -- -- 60
2020-09-10 06:00:00 14 0 Calma 9 Noroeste 0 -- -- 60
2020-09-10 05:00:00 15 2 Nordeste 6 Norte 0 -- -- 56
2020-09-10 04:00:00 17.3 0 Calma 13 Sudoeste 0 -- -- 48
2020-09-10 03:00:00 19 5 Noroeste 25 Este 0 -- -- 44
2020-09-10 02:00:00 19.8 8 Nordeste 18 Este 0 -- -- 39
2020-09-10 01:00:00 18.5 2 Nordeste 12 Noroeste 0 -- -- 40
2020-09-10 00:00:00 18.7 4 Norte 10 Norte 0 -- -- 39
2020-09-09 23:00:00 18.9 3 Norte 7 Norte 0 -- -- 42
2020-09-09 22:00:00 21.5 4 Sudeste 6 Norte 0 -- -- 38
2020-09-09 21:00:00 23.2 3 Sur 15 Sur 0 -- -- 34
2020-09-09 20:00:00 26 7 Sudoeste 18 Sur 0 -- -- 30
2020-09-09 19:00:00 27.5 6 Sur 19 Sudoeste 0 -- -- 28
2020-09-09 18:00:00 27.2 8 Sudoeste 21 Sudoeste 0 -- -- 29
2020-09-09 17:00:00 28.3 7 Sur 22 Sudoeste 0 -- -- 28
2020-09-09 16:00:00 27.6 8 Sudoeste 19 Sur 0 -- -- 29
2020-09-09 15:00:00 26.5 6 Este 19 Sur 0 -- -- 29
2020-09-09 14:00:00 25.5 7 Sudeste 17 Sudeste 0 -- -- 33
2020-09-09 13:00:00 24.6 6 Sudeste 15 Sur 0 -- -- 35
2020-09-09 12:00:00 22.8 7 Sur 15 Sudoeste 0 -- -- 38
2020-09-09 11:00:00 22.3 4 Sudoeste 10 Sudoeste 0 -- -- 39
2020-09-09 10:00:00 20.8 2 Sudeste 5 Sudeste 0 -- -- 43
2020-09-09 09:00:00 16.4 0 Calma 4 Noroeste 0 -- -- 54
2020-09-09 08:00:00 11.7 0 Calma 6 Norte 0 -- -- 63
2020-09-09 07:00:00 11.8 0 Calma 4 Nordeste 0 -- -- 61
2020-09-09 06:00:00 12.1 0 Calma 6 Norte 0 -- -- 59
2020-09-09 05:00:00 12.8 0 Calma 4 Sudeste 0 -- -- 56
2020-09-09 04:00:00 14.2 0 Calma 7 Norte 0 -- -- 51
2020-09-09 03:00:00 16.4 3 Sudoeste 20 Este 0 -- -- 44
2020-09-09 02:00:00 18.3 13 Este 26 Este 0 -- -- 40
2020-09-09 01:00:00 18.3 14 Este 27 Este 0 -- -- 39
2020-09-09 00:00:00 15.3 0 Calma 4 Noroeste 0 -- -- 45
2020-09-08 23:00:00 16.8 0 Calma 7 Norte 0 -- -- 41
2020-09-08 22:00:00 18.1 4 Norte 9 Norte 0 -- -- 38
2020-09-08 21:00:00 20.4 0 Calma 12 Sudeste 0 -- -- 33
2020-09-08 20:00:00 23.3 6 Sudeste 17 Sudeste 0 -- -- 29
2020-09-08 19:00:00 24.6 9 Este 21 Este 0 -- -- 23
2020-09-08 18:00:00 24.7 9 Sudeste 27 Este 0 -- -- 22
2020-09-08 17:00:00 24.3 10 Sudeste 23 Este 0 -- -- 26
2020-09-08 16:00:00 23.4 10 Sudeste 26 Este 0 -- -- 28
2020-09-08 15:00:00 23 10 Este 20 Sudeste 0 -- -- 32
2020-09-08 14:00:00 22.2 7 Sudeste 22 Sur 0 -- -- 37
2020-09-08 13:00:00 21.2 6 Sudeste 20 Este 0 -- -- 42
2020-09-08 12:00:00 20.3 4 Sudeste 18 Nordeste 0 -- -- 44
2020-09-08 11:00:00 17.7 10 Este 25 Este 0 -- -- 48
2020-09-08 10:00:00 15.5 16 Este 27 Este 0 -- -- 49
2020-09-08 09:00:00 14.6 2 Noroeste 6 Norte 0 -- -- 48
2020-09-08 08:00:00 10.5 2 Oeste 8 Noroeste 0 -- -- 57
2020-09-08 07:00:00 10.6 4 Noroeste 9 Noroeste 0 -- -- 56
2020-09-08 06:00:00 11.9 4 Este 10 Sudeste 0 -- -- 52
2020-09-08 05:00:00 11.9 3 Nordeste 13 Este 0 -- -- 51
2020-09-08 04:00:00 13 5 Este 19 Este 0 -- -- 47
2020-09-08 03:00:00 14.2 3 Norte 20 Este 0 -- -- 44
2020-09-08 02:00:00 15 4 Nordeste 12 Este 0 -- -- 44
2020-09-08 01:00:00 15.9 3 Norte 13 Norte 0 -- -- 45
2020-09-08 00:00:00 17.2 4 Norte 15 Sur 0 -- -- 41
2020-09-07 23:00:00 17.8 6 Oeste 17 Oeste 0 -- -- 41
2020-09-07 22:00:00 19 6 Noroeste 14 Oeste 0 -- -- 39
2020-09-07 21:00:00 21 6 Norte 23 Norte 0 -- -- 34
2020-09-07 20:00:00 24.3 12 Norte 30 Noroeste 0 -- -- 27
2020-09-07 19:00:00 25.4 14 Noroeste 29 Noroeste 0 -- -- 25
2020-09-07 18:00:00 26.3 7 Oeste 30 Noroeste 0 -- -- 27
2020-09-07 17:00:00 25.4 14 Oeste 24 Oeste 0 -- -- 29
2020-09-07 16:00:00 25 6 Noroeste 17 Sur 0 -- -- 30
2020-09-07 15:00:00 23.7 9 Sudeste 20 Sudeste 0 -- -- 33
2020-09-07 14:00:00 23.1 9 Sur 20 Sur 0 -- -- 35
2020-09-07 13:00:00 22.9 5 Sur 15 Sur 0 -- -- 36
2020-09-07 12:00:00 21.2 5 Este 15 Este 0 -- -- 40
2020-09-07 11:00:00 19.6 3 Oeste 21 Noroeste 0 -- -- 43
2020-09-07 10:00:00 14.8 15 Noroeste 30 Noroeste 0 -- -- 58
2020-09-07 09:00:00 14.3 8 Norte 26 Noroeste 0 -- -- 60
2020-09-07 08:00:00 12.2 12 Noroeste 25 Noroeste 0 -- -- 65
2020-09-07 07:00:00 13 10 Noroeste 22 Noroeste 0 -- -- 61
2020-09-07 06:00:00 14.3 5 Norte 20 Noroeste 0 -- -- 55
2020-09-07 05:00:00 15.1 12 Noroeste 26 Oeste 0 -- -- 54
2020-09-07 04:00:00 16.4 14 Noroeste 23 Noroeste 0 -- -- 52
2020-09-07 03:00:00 16.3 10 Noroeste 23 Norte 0 -- -- 52
2020-09-07 02:00:00 17.8 8 Noroeste 15 Oeste 0 -- -- 46
2020-09-07 01:00:00 19.7 7 Noroeste 15 Noroeste 0 -- -- 40
2020-09-07 00:00:00 21.3 9 Noroeste 27 Oeste 0 -- -- 38
2020-09-06 23:00:00 23 17 Noroeste 29 Noroeste 0 -- -- 38
2020-09-06 22:00:00 23.9 13 Noroeste 26 Norte 0 -- -- 36
2020-09-06 21:00:00 25.2 13 Norte 25 Noroeste 0 -- -- 34
2020-09-06 20:00:00 28.4 7 Norte 27 Norte 0 -- -- 33
2020-09-06 19:00:00 30.1 11 Noroeste 25 Noroeste 0 -- -- 29
2020-09-06 18:00:00 30.1 10 Oeste 24 Oeste 0 -- -- 27
2020-09-06 17:00:00 30.6 7 Sudoeste 24 Sudoeste 0 -- -- 25
2020-09-06 16:00:00 31.7 8 Sudoeste 25 Sudoeste 0 -- -- 23
2020-09-06 15:00:00 31.5 7 Sur 24 Sur 0 -- -- 23
2020-09-06 14:00:00 29.9 7 Sur 18 Sur 0 -- -- 24
2020-09-06 13:00:00 28.8 5 Sudoeste 15 Sur 0 -- -- 25
2020-09-06 12:00:00 28.6 4 Sur 14 Este 0 -- -- 24
2020-09-06 11:00:00 27.5 4 Sur 10 Sur 0 -- -- 29
2020-09-06 10:00:00 27.2 0 Calma 4 Noroeste 0 -- -- 37
2020-09-06 09:00:00 21.8 0 Calma 3 Norte 0 -- -- 50
2020-09-06 08:00:00 15.5 0 Calma 4 Noroeste 0 -- -- 67
2020-09-06 07:00:00 16.3 0 Calma 8 Noroeste 0 -- -- 63
2020-09-06 06:00:00 16.5 0 Calma 4 Norte 0 -- -- 65
2020-09-06 05:00:00 18.5 2 Sudeste 9 Noroeste 0 -- -- 59
2020-09-06 04:00:00 20 0 Calma 17 Este 0 -- -- 54
2020-09-06 03:00:00 21.8 9 Este 24 Este 0 -- -- 50
2020-09-06 02:00:00 23.1 12 Este 27 Este 0 -- -- 44
2020-09-06 01:00:00 24.1 17 Este 31 Este 0 -- -- 39
2020-09-06 00:00:00 21.6 2 Noroeste 8 Noroeste 0 -- -- 40
2020-09-05 23:00:00 22 2 Noroeste 6 Norte 0 -- -- 40
2020-09-05 22:00:00 23.6 0 Calma 8 Norte 0 -- -- 37
2020-09-05 21:00:00 27 0 Calma 7 Sur 0 -- -- 30
2020-09-05 20:00:00 30.4 5 Sur 10 Sudoeste 0 -- -- 25
2020-09-05 19:00:00 32 6 Sudoeste 17 Sur 0 -- -- 24
2020-09-05 18:00:00 32.6 6 Sur 17 Sudoeste 0 -- -- 25
2020-09-05 17:00:00 32.8 6 Sudoeste 23 Sudeste 0 -- -- 25
2020-09-05 16:00:00 31.8 7 Sur 26 Sudoeste 0 -- -- 26
2020-09-05 15:00:00 31.4 6 Sur 18 Sudoeste 0 -- -- 29
2020-09-05 14:00:00 30 5 Sudoeste 14 Sur 0 -- -- 34
2020-09-05 13:00:00 29.1 5 Sudoeste 14 Oeste 0 -- -- 35
2020-09-05 12:00:00 26.8 5 Oeste 10 Sudoeste 0 -- -- 38
2020-09-05 11:00:00 26.2 3 Sur 7 Sudoeste 0 -- -- 40
2020-09-05 10:00:00 23.7 3 Sur 5 Sur 0 -- -- 46
2020-09-05 09:00:00 20.3 0 Calma 3 Noroeste 0 -- -- 54
2020-09-05 08:00:00 14.3 0 Calma 5 Noroeste 0 -- -- 71
2020-09-05 07:00:00 15 0 Calma 3 Norte 0 -- -- 64
2020-09-05 06:00:00 15.2 2 Norte 6 Norte 0 -- -- 65
2020-09-05 05:00:00 16.5 0 Calma 8 Sudeste 0 -- -- 55
2020-09-05 04:00:00 17 0 Calma 4 Norte 0 -- -- 50
2020-09-05 03:00:00 17.4 0 Calma 3 Este 0 -- -- 50
2020-09-05 02:00:00 17.6 0 Calma 5 Sudoeste 0 -- -- 50
2020-09-05 01:00:00 18.4 3 Norte 9 Norte 0 -- -- 47
2020-09-05 00:00:00 19.4 0 Calma 4 Nordeste 0 -- -- 44
2020-09-04 23:00:00 21.1 3 Noroeste 5 Norte 0 -- -- 40
2020-09-04 22:00:00 21.8 3 Norte 9 Noroeste 0 -- -- 39
2020-09-04 21:00:00 26.3 0 Calma 9 Sur 0 -- -- 30
2020-09-04 20:00:00 30.3 4 Sudoeste 14 Sur 0 -- -- 25
2020-09-04 19:00:00 31 6 Sudoeste 16 Sur 0 -- -- 26
2020-09-04 18:00:00 30.7 6 Sudeste 17 Sur 0 -- -- 27
2020-09-04 17:00:00 31 5 Sur 21 Sur 0 -- -- 28
2020-09-04 16:00:00 30.6 6 Sur 20 Sudeste 0 -- -- 29
2020-09-04 15:00:00 29.8 5 Sur 15 Sudoeste 0 -- -- 30
2020-09-04 14:00:00 28.3 6 Sudeste 15 Sur 0 -- -- 34
2020-09-04 13:00:00 27.4 6 Sudoeste 15 Sudoeste 0 -- -- 37
2020-09-04 12:00:00 27 5 Sudoeste 12 Sudoeste 0 -- -- 40
2020-09-04 11:00:00 25.3 4 Sur 12 Sudeste 0 -- -- 42
2020-09-04 10:00:00 23.9 2 Sudoeste 4 Sur 0 -- -- 47
2020-09-04 09:00:00 19.7 0 Calma 4 Noroeste 0 -- -- 52
2020-09-04 08:00:00 14.7 2 Norte 6 Noroeste 0 -- -- 70
2020-09-04 07:00:00 15 2 Noroeste 5 Noroeste 0 -- -- 62
2020-09-04 06:00:00 15.9 0 Calma 6 Norte 0 -- -- 56
2020-09-04 05:00:00 17.5 0 Calma 10 Sudeste 0 -- -- 49
2020-09-04 04:00:00 17.8 3 Sur 11 Noroeste 0 -- -- 42
2020-09-04 03:00:00 16.1 2 Norte 17 Sudeste 0 -- -- 50
2020-09-04 02:00:00 17.5 0 Calma 3 Norte 0 -- -- 46
2020-09-04 01:00:00 18 0 Calma 4 Norte 0 -- -- 44
2020-09-04 00:00:00 19 2 Noroeste 5 Norte 0 -- -- 43
2020-09-03 23:00:00 20.7 0 Calma 4 Este 0 -- -- 39
2020-09-03 22:00:00 22.6 3 Norte 7 Norte 0 -- -- 36
2020-09-03 21:00:00 25.9 4 Sudeste 15 Sur 0 -- -- 30
2020-09-03 20:00:00 29.2 5 Sur 15 Sudoeste 0 -- -- 27
2020-09-03 19:00:00 30.8 4 Sur 17 Sur 0 -- -- 26
2020-09-03 18:00:00 30.7 7 Sur 16 Oeste 0 -- -- 26
2020-09-03 17:00:00 29.9 8 Sudeste 18 Sudeste 0 -- -- 26
2020-09-03 16:00:00 29.5 8 Sudeste 22 Sudeste 0 -- -- 27
2020-09-03 15:00:00 28.8 9 Sudoeste 21 Oeste 0 -- -- 27
2020-09-03 14:00:00 28.8 5 Sudeste 15 Sur 0 -- -- 29
2020-09-03 13:00:00 27.2 6 Sur 15 Sudeste 0 -- -- 29
2020-09-03 12:00:00 26.5 4 Sudoeste 9 Sur 0 -- -- 28
2020-09-03 11:00:00 24.6 3 Oeste 10 Este 0 -- -- 32
2020-09-03 10:00:00 21.2 7 Este 19 Este 0 -- -- 36
2020-09-03 09:00:00 18.5 0 Calma 5 Norte 0 -- -- 43
2020-09-03 08:00:00 12.6 2 Noroeste 6 Norte 0 -- -- 57
2020-09-03 07:00:00 13.2 3 Este 14 Noroeste 0 -- -- 55
2020-09-03 06:00:00 15.2 4 Oeste 12 Este 0 -- -- 49
2020-09-03 05:00:00 14.6 0 Calma 6 Norte 0 -- -- 51
2020-09-03 04:00:00 14.4 3 Nordeste 7 Noroeste 0 -- -- 53
2020-09-03 03:00:00 15.2 3 Norte 10 Sudeste 0 -- -- 49
2020-09-03 02:00:00 16.4 0 Calma 5 Noroeste 0 -- -- 45
2020-09-03 01:00:00 17.1 0 Calma 9 Norte 0 -- -- 44
2020-09-03 00:00:00 18.3 4 Norte 9 Norte 0 -- -- 40
2020-09-02 23:00:00 20.5 2 Nordeste 10 Oeste 0 -- -- 35
2020-09-02 22:00:00 21.5 3 Noroeste 16 Norte 0 -- -- 34
2020-09-02 21:00:00 23.6 7 Noroeste 17 Noroeste 0 -- -- 30
2020-09-02 20:00:00 26.7 11 Noroeste 22 Norte 0 -- -- 26
2020-09-02 19:00:00 27.5 16 Oeste 25 Oeste 0 -- -- 25
2020-09-02 18:00:00 28.2 10 Oeste 19 Oeste 0 -- -- 24
2020-09-02 17:00:00 28.9 7 Sudoeste 21 Sudoeste 0 -- -- 25
2020-09-02 16:00:00 27.8 7 Sudoeste 21 Sudeste 0 -- -- 26
2020-09-02 15:00:00 26.2 10 Sudeste 20 Sudeste 0 -- -- 27
2020-09-02 14:00:00 25.9 8 Sudoeste 19 Sur 0 -- -- 28
2020-09-02 13:00:00 24.8 7 Sudoeste 17 Sur 0 -- -- 30
2020-09-02 12:00:00 24.9 4 Sudeste 13 Este 0 -- -- 29
2020-09-02 11:00:00 21.9 8 Este 17 Este 0 -- -- 32
2020-09-02 10:00:00 22.1 3 Sur 11 Este 0 -- -- 32
2020-09-02 09:00:00 17.4 0 Calma 5 Norte 0 -- -- 43
2020-09-02 08:00:00 12.8 0 Calma 9 Norte 0 -- -- 52
2020-09-02 07:00:00 13.5 0 Calma 6 Norte 0 -- -- 50
2020-09-02 06:00:00 15.2 3 Norte 8 Nordeste 0 -- -- 44
2020-09-02 05:00:00 16.6 7 Norte 14 Noroeste 0 -- -- 40
2020-09-02 04:00:00 17.3 5 Norte 31 Este 0 -- -- 38
2020-09-02 03:00:00 18.3 20 Este 32 Este 0 -- -- 36
2020-09-02 02:00:00 18.6 19 Este 30 Este 0 -- -- 35
2020-09-02 01:00:00 19.4 14 Este 24 Este 0 -- -- 31
2020-09-02 00:00:00 17 2 Noroeste 6 Norte 0 -- -- 37
2020-09-01 23:00:00 18.2 3 Este 9 Este 0 -- -- 37
2020-09-01 22:00:00 20.8 4 Este 8 Este 0 -- -- 31
2020-09-01 21:00:00 22.7 4 Oeste 10 Sudoeste 0 -- -- 27
2020-09-01 20:00:00 24.3 5 Sudoeste 15 Sudoeste 0 -- -- 25
2020-09-01 19:00:00 25.3 6 Oeste 15 Sur 0 -- -- 24
2020-09-01 18:00:00 27.1 5 Oeste 18 Noroeste 0 -- -- 22
2020-09-01 17:00:00 24.9 7 Oeste 19 Sur 0 -- -- 24
2020-09-01 16:00:00 26.2 7 Sudoeste 18 Sur 0 -- -- 23
2020-09-01 15:00:00 23.9 6 Sudeste 14 Sur 0 -- -- 26
2020-09-01 14:00:00 23.9 3 Oeste 11 Sudeste 0 -- -- 25
2020-09-01 13:00:00 25.3 4 Sudeste 10 Sudeste 0 -- -- 23
2020-09-01 12:00:00 22 3 Oeste 5 Este 0 -- -- 29
2020-09-01 11:00:00 19.9 0 Calma 5 Este 0 -- -- 31
2020-09-01 10:00:00 16.6 0 Calma 3 Este 0 -- -- 45
2020-09-01 09:00:00 14.9 2 Nordeste 7 Noroeste 0 -- -- 48
2020-09-01 08:00:00 13.8 0 Calma 8 Noroeste 0 -- -- 48
2020-09-01 07:00:00 13.5 0 Calma 4 Oeste 0 -- -- 48
2020-09-01 06:00:00 14.2 2 Nordeste 9 Norte 0 -- -- 43
2020-09-01 05:00:00 13.6 2 Este 3 Noroeste 0 -- -- 48
2020-09-01 04:00:00 13.5 0 Calma 6 Norte 0 -- -- 46
2020-09-01 03:00:00 13.3 0 Calma 7 Norte 0 -- -- 46
2020-09-01 02:00:00 13.3 0 Calma 6 Norte 0 -- -- 45
2020-09-01 01:00:00 13.9 2 Noroeste 8 Noroeste 0 -- -- 42
2020-09-01 00:00:00 15 0 Calma 10 Norte 0 -- -- 40
2020-08-31 23:00:00 15.8 5 Norte 9 Norte 0 -- -- 37
2020-08-31 22:00:00 17.5 0 Calma 7 Norte 0 -- -- 37
2020-08-31 21:00:00 20.1 3 Norte 13 Sudoeste 0 -- -- 32
2020-08-31 20:00:00 24.7 4 Sudoeste 13 Sudoeste 0 -- -- 25
2020-08-31 19:00:00 24.1 5 Sudoeste 16 Sur 0 -- -- 25
2020-08-31 18:00:00 23.7 7 Sur 21 Sur 0 -- -- 25
2020-08-31 17:00:00 24 7 Sudoeste 19 Sudoeste 0 -- -- 25
2020-08-31 16:00:00 23 7 Sur 21 Sur 0 -- -- 27
2020-08-31 15:00:00 22 8 Sur 22 Sudoeste 0 -- -- 29
2020-08-31 14:00:00 22 8 Sudoeste 16 Oeste 0 -- -- 31
2020-08-31 13:00:00 20.9 6 Sur 17 Sudoeste 0 -- -- 31
2020-08-31 12:00:00 20.6 5 Sur 14 Sudeste 0 -- -- 31
2020-08-31 11:00:00 18.8 5 Sudeste 9 Sudeste 0 -- -- 35
2020-08-31 10:00:00 16.9 2 Sudoeste 5 Oeste 0 -- -- 42
2020-08-31 09:00:00 12.7 0 Calma 5 Noroeste 0 -- -- 54
2020-08-31 08:00:00 7.6 0 Calma 6 Noroeste 0 -- -- 69
2020-08-31 07:00:00 7.6 3 Noroeste 7 Norte 0 -- -- 67
2020-08-31 06:00:00 8.3 3 Norte 8 Norte 0 -- -- 63
2020-08-31 05:00:00 8.2 2 Noroeste 8 Sudeste 0 -- -- 63
2020-08-31 04:00:00 9.4 2 Este 5 Este 0 -- -- 58
2020-08-31 03:00:00 11.5 3 Noroeste 11 Este 0 -- -- 50
2020-08-31 02:00:00 10.8 0 Calma 10 Sur 0 -- -- 51
2020-08-31 01:00:00 11.9 2 Noroeste 10 Norte 0 -- -- 47
2020-08-31 00:00:00 12.6 5 Noroeste 11 Noroeste 0 -- -- 44
2020-08-30 23:00:00 14.2 6 Noroeste 9 Oeste 0 -- -- 42
2020-08-30 22:00:00 15.6 4 Oeste 13 Norte 0 -- -- 39
2020-08-30 21:00:00 16.9 8 Noroeste 26 Noroeste 0 -- -- 37
2020-08-30 20:00:00 19.6 12 Noroeste 28 Norte 0 -- -- 31
2020-08-30 19:00:00 21.1 12 Noroeste 27 Noroeste 0 -- -- 30
2020-08-30 18:00:00 21.9 10 Noroeste 26 Norte 0 -- -- 29
2020-08-30 17:00:00 20.9 11 Norte 26 Noroeste 0 -- -- 32
2020-08-30 16:00:00 22 10 Noroeste 39 Oeste 0 -- -- 31
2020-08-30 15:00:00 21.2 7 Sur 22 Oeste 0 -- -- 30
2020-08-30 14:00:00 20.7 7 Sudoeste 18 Noroeste 0 -- -- 32
2020-08-30 13:00:00 19.5 7 Sudoeste 15 Sur 0 -- -- 35
2020-08-30 12:00:00 18.3 5 Sudoeste 15 Este 0 -- -- 37
2020-08-30 11:00:00 15.9 8 Sudeste 18 Sudeste 0 -- -- 44
2020-08-30 10:00:00 16.9 2 Sur 5 Sur 0 -- -- 43
2020-08-30 09:00:00 12.8 2 Noroeste 5 Noroeste 0 -- -- 56
2020-08-30 08:00:00 7.9 3 Noroeste 6 Norte 0 -- -- 71
2020-08-30 07:00:00 8.7 2 Noroeste 7 Noroeste 0 -- -- 70
2020-08-30 06:00:00 9.4 4 Noroeste 11 Sudeste 0 -- -- 67
2020-08-30 05:00:00 10.8 4 Sudeste 12 Norte 0 -- -- 63
2020-08-30 04:00:00 11.2 5 Norte 19 Noroeste 0 -- -- 61
2020-08-30 03:00:00 11.6 2 Norte 17 Oeste 0 -- -- 61
2020-08-30 02:00:00 13.4 5 Nordeste 27 Noroeste 0 -- -- 53
2020-08-30 01:00:00 13.9 13 Noroeste 30 Norte 0 -- -- 52
2020-08-30 00:00:00 14.5 14 Norte 30 Norte 0 -- -- 52
2020-08-29 23:00:00 14.7 9 Norte 22 Noroeste 0 -- -- 51
2020-08-29 22:00:00 15.3 13 Noroeste 28 Norte 0 -- -- 50
2020-08-29 21:00:00 17.1 12 Norte 35 Norte 0 -- -- 44
2020-08-29 20:00:00 18.3 14 Noroeste 29 Norte 0 -- -- 36
2020-08-29 19:00:00 19.5 14 Noroeste 32 Norte 0 -- -- 36
2020-08-29 18:00:00 21 13 Noroeste 45 Noroeste 0 -- -- 34
2020-08-29 17:00:00 20.5 18 Noroeste 35 Noroeste 0 -- -- 34
2020-08-29 16:00:00 19.3 15 Norte 31 Norte 0 -- -- 37
2020-08-29 15:00:00 19.9 9 Norte 33 Noroeste 0 -- -- 37
2020-08-29 14:00:00 18.6 13 Noroeste 33 Norte 0 -- -- 40
2020-08-29 13:00:00 17.5 12 Noroeste 33 Noroeste 0 -- -- 41
2020-08-29 12:00:00 16 19 Noroeste 34 Noroeste 0 -- -- 46
2020-08-29 11:00:00 15.4 17 Noroeste 41 Norte 0 -- -- 47
2020-08-29 10:00:00 15 16 Noroeste 39 Noroeste 0 -- -- 47
2020-08-29 09:00:00 13.4 18 Noroeste 32 Noroeste 0 -- -- 52
2020-08-29 08:00:00 12.2 13 Noroeste 33 Norte 0 -- -- 55
2020-08-29 07:00:00 12.9 11 Noroeste 28 Norte 0 -- -- 53
2020-08-29 06:00:00 13.7 15 Noroeste 40 Norte 0 -- -- 50
2020-08-29 05:00:00 14.3 16 Noroeste 32 Norte 0 -- -- 54
2020-08-29 04:00:00 15.2 10 Noroeste 35 Noroeste 0 -- -- 53
2020-08-29 03:00:00 15.7 16 Noroeste 40 Noroeste 0 -- -- 57
2020-08-29 02:00:00 17.1 20 Noroeste 42 Noroeste 0 -- -- 53
2020-08-29 01:00:00 17.6 12 Noroeste 53 Noroeste 0 -- -- 44
2020-08-29 00:00:00 18.5 26 Noroeste 52 Noroeste 0 -- -- 42
2020-08-28 23:00:00 19.8 23 Noroeste 44 Noroeste 0 -- -- 37
2020-08-28 22:00:00 21.4 20 Noroeste 46 Noroeste 0 -- -- 28
2020-08-28 21:00:00 23 17 Noroeste 40 Noroeste 0 -- -- 22
2020-08-28 20:00:00 25.7 17 Noroeste 36 Noroeste 0 -- -- 20
2020-08-28 19:00:00 27.2 18 Noroeste 40 Noroeste 0 -- -- 18
2020-08-28 18:00:00 27.3 25 Noroeste 44 Noroeste 0 -- -- 20
2020-08-28 17:00:00 27.2 22 Noroeste 48 Noroeste 0 -- -- 26
2020-08-28 16:00:00 27.2 26 Noroeste 49 Oeste 0 -- -- 29
2020-08-28 15:00:00 26 23 Noroeste 45 Noroeste 0 -- -- 37
2020-08-28 14:00:00 25.7 22 Noroeste 50 Oeste 0 -- -- 39
2020-08-28 13:00:00 24.8 23 Noroeste 45 Oeste 0 -- -- 46
2020-08-28 12:00:00 23.8 23 Noroeste 46 Oeste 0 -- -- 46
2020-08-28 11:00:00 21.8 24 Noroeste 46 Noroeste 0 -- -- 56
2020-08-28 10:00:00 21.3 18 Noroeste 38 Noroeste 0 -- -- 57
2020-08-28 09:00:00 19.8 20 Noroeste 39 Noroeste 0 -- -- 62
2020-08-28 08:00:00 19 18 Noroeste 48 Noroeste 0 -- -- 65
2020-08-28 07:00:00 19.6 27 Noroeste 49 Noroeste 0 -- -- 60
2020-08-28 06:00:00 20.9 23 Noroeste 43 Noroeste 0 -- -- 59
2020-08-28 05:00:00 22.3 21 Noroeste 38 Noroeste 0 -- -- 51
2020-08-28 04:00:00 22.9 20 Noroeste 35 Noroeste 0 -- -- 47
2020-08-28 03:00:00 23.2 20 Noroeste 42 Noroeste 0 -- -- 45
2020-08-28 02:00:00 23.9 21 Noroeste 45 Noroeste 0 -- -- 41
2020-08-28 01:00:00 25.5 21 Noroeste 40 Oeste 0 -- -- 35
2020-08-28 00:00:00 26 24 Noroeste 39 Noroeste 0 -- -- 34
2020-08-27 23:00:00 26.9 9 Norte 19 Noroeste 0 -- -- 33
2020-08-27 22:00:00 27.7 8 Noroeste 18 Noroeste 0 -- -- 30
2020-08-27 21:00:00 29.5 8 Noroeste 17 Noroeste 0 -- -- 27
2020-08-27 20:00:00 32.8 9 Noroeste 21 Noroeste 0 -- -- 22
2020-08-27 19:00:00 34.3 9 Noroeste 24 Noroeste 0 -- -- 22
2020-08-27 18:00:00 34.4 8 Noroeste 24 Oeste 0 -- -- 22
2020-08-27 17:00:00 33 12 Noroeste 24 Noroeste 0 -- -- 22
2020-08-27 16:00:00 36.1 6 Este 16 Sudoeste 0 -- -- 20
2020-08-27 15:00:00 35 5 Sur 21 Noroeste 0 -- -- 24
2020-08-27 14:00:00 33.3 9 Noroeste 21 Oeste 0 -- -- 26
2020-08-27 13:00:00 33.6 5 Sur 19 Sur 0 -- -- 25
2020-08-27 12:00:00 32.4 8 Sur 15 Sur 0 -- -- 28
2020-08-27 11:00:00 32.2 5 Sudeste 10 Sur 0 -- -- 29
2020-08-27 10:00:00 30.8 0 Calma 6 Este 0 -- -- 31
2020-08-27 09:00:00 25.9 3 Este 11 Noroeste 0 -- -- 37
2020-08-27 08:00:00 21.8 4 Nordeste 18 Noroeste 0 -- -- 42
2020-08-27 07:00:00 23 8 Noroeste 19 Norte 0 -- -- 43
2020-08-27 06:00:00 23.7 10 Noroeste 18 Noroeste 0 -- -- 39
2020-08-27 05:00:00 22.3 2 Este 12 Norte 0 -- -- 38
2020-08-27 04:00:00 23 2 Nordeste 13 Noroeste 0 -- -- 36
2020-08-27 03:00:00 25.9 8 Noroeste 15 Noroeste 0 -- -- 29
2020-08-27 02:00:00 25.8 9 Noroeste 14 Noroeste 0 -- -- 30
2020-08-27 01:00:00 26.2 9 Noroeste 17 Noroeste 0 -- -- 30
2020-08-27 00:00:00 26.5 6 Noroeste 14 Noroeste 0 -- -- 31
2020-08-26 23:00:00 27.5 6 Noroeste 15 Noroeste 0 -- -- 29
2020-08-26 22:00:00 28.3 8 Noroeste 15 Noroeste 0 -- -- 29
2020-08-26 21:00:00 30.3 9 Noroeste 24 Sur 0 -- -- 28
2020-08-26 20:00:00 33.5 9 Sur 20 Sudoeste 0 -- -- 22
2020-08-26 19:00:00 35.3 7 Sudoeste 24 Sudoeste 0 -- -- 19
2020-08-26 18:00:00 35.5 10 Sudoeste 30 Sudeste 0 -- -- 18
2020-08-26 17:00:00 35.5 10 Sur 24 Sudoeste 0 -- -- 19
2020-08-26 16:00:00 35 10 Sudoeste 28 Sur 0 -- -- 21
2020-08-26 15:00:00 34.2 11 Sudoeste 30 Sudoeste 0 -- -- 22
2020-08-26 14:00:00 34 7 Sur 26 Sudoeste 0 -- -- 22
2020-08-26 13:00:00 32.9 9 Sur 21 Sudeste 0 -- -- 23
2020-08-26 12:00:00 32.9 4 Sudoeste 10 Sur 0 -- -- 24
2020-08-26 11:00:00 31.9 3 Sudoeste 5 Sur 0 -- -- 24
2020-08-26 10:00:00 29.3 0 Calma 4 Sur 0 -- -- 31
2020-08-26 09:00:00 25.2 0 Calma 3 Norte 0 -- -- 37
2020-08-26 08:00:00 19.2 0 Calma 9 Noroeste 0 -- -- 46
2020-08-26 07:00:00 19.5 0 Calma 12 Norte 0 -- -- 45
2020-08-26 06:00:00 19.9 3 Noroeste 8 Norte 0 -- -- 43
2020-08-26 05:00:00 22.6 6 Norte 15 Noroeste 0 -- -- 36
2020-08-26 04:00:00 22.5 3 Norte 12 Norte 0 -- -- 36
2020-08-26 03:00:00 24.7 8 Noroeste 28 Noroeste 0 -- -- 28
2020-08-26 02:00:00 26.3 17 Noroeste 33 Oeste 0 -- -- 26
2020-08-26 01:00:00 26.1 12 Noroeste 25 Noroeste 0 -- -- 30
2020-08-26 00:00:00 23.9 3 Norte 9 Norte 0 -- -- 36
2020-08-25 23:00:00 23.3 4 Norte 9 Noroeste 0 -- -- 38
2020-08-25 22:00:00 26.5 3 Noroeste 7 Noroeste 0 -- -- 33
2020-08-25 21:00:00 30.2 0 Calma 13 Sur 0 -- -- 25
2020-08-25 20:00:00 33.2 7 Sudoeste 19 Sur 0 -- -- 22
2020-08-25 19:00:00 34 9 Sur 24 Sudeste 0 -- -- 22
2020-08-25 18:00:00 34.2 10 Sur 27 Sur 0 -- -- 23
2020-08-25 17:00:00 34.1 11 Sur 23 Sudeste 0 -- -- 24
2020-08-25 16:00:00 34.3 9 Sur 21 Sur 0 -- -- 24
2020-08-25 15:00:00 33.2 9 Sur 21 Sudeste 0 -- -- 26
2020-08-25 14:00:00 33 8 Sur 22 Sur 0 -- -- 26
2020-08-25 13:00:00 31.3 8 Sur 20 Sur 0 -- -- 29
2020-08-25 12:00:00 30.4 5 Sudeste 12 Sur 0 -- -- 31
2020-08-25 11:00:00 29.1 3 Sur 9 Sur 0 -- -- 32
2020-08-25 10:00:00 26.5 0 Calma 6 Sudoeste 0 -- -- 40
2020-08-25 09:00:00 22.3 0 Calma 5 Sudeste 0 -- -- 46
2020-08-25 08:00:00 17.9 0 Calma 6 Norte 0 -- -- 56
2020-08-25 07:00:00 18.2 2 Noroeste 8 Norte 0 -- -- 53
2020-08-25 06:00:00 18 2 Sur 8 Nordeste 0 -- -- 55
2020-08-25 05:00:00 18.4 0 Calma 4 Noroeste 0 -- -- 55
2020-08-25 04:00:00 18.8 0 Calma 8 Sudeste 0 -- -- 51
2020-08-25 03:00:00 19.7 0 Calma 4 Norte 0 -- -- 49
2020-08-25 02:00:00 20.3 0 Calma 7 Norte 0 -- -- 46
2020-08-25 01:00:00 21.4 3 Norte 8 Noroeste 0 -- -- 41
2020-08-25 00:00:00 22.1 0 Calma 7 Norte 0 -- -- 40
2020-08-24 23:00:00 23.1 4 Norte 11 Noroeste 0 -- -- 37
2020-08-24 22:00:00 25.3 2 Noroeste 15 Noroeste 0 -- -- 35
2020-08-24 21:00:00 28.6 4 Oeste 11 Sur 0 -- -- 35
2020-08-24 20:00:00 31 8 Sudoeste 18 Sudoeste 0 -- -- 29
2020-08-24 19:00:00 32.4 6 Sudoeste 19 Oeste 0 -- -- 27
2020-08-24 18:00:00 32.2 9 Sudoeste 26 Oeste 0 -- -- 28
2020-08-24 17:00:00 32.3 8 Sudoeste 22 Sur 0 -- -- 27
2020-08-24 16:00:00 32.2 8 Sur 19 Sudeste 0 -- -- 27
2020-08-24 15:00:00 31.6 5 Sur 15 Sur 0 -- -- 28
2020-08-24 14:00:00 30.4 4 Sudoeste 15 Oeste 0 -- -- 29
2020-08-24 13:00:00 30 4 Nordeste 12 Este 0 -- -- 29
2020-08-24 12:00:00 28.5 4 Noroeste 10 Sudeste 0 -- -- 29
2020-08-24 11:00:00 26.4 4 Este 18 Este 0 -- -- 34
2020-08-24 10:00:00 23.4 12 Este 21 Este 0 -- -- 41
2020-08-24 09:00:00 21.8 0 Calma 5 Noroeste 0 -- -- 41
2020-08-24 08:00:00 16.9 0 Calma 6 Oeste 0 -- -- 48
2020-08-24 07:00:00 16.4 2 Sudeste 7 Norte 0 -- -- 48
2020-08-24 06:00:00 18.3 0 Calma 12 Noroeste 0 -- -- 42
2020-08-24 05:00:00 19.9 3 Noroeste 18 Nordeste 0 -- -- 38
2020-08-24 04:00:00 21.4 6 Este 18 Este 0 -- -- 35
2020-08-24 03:00:00 21.1 4 Norte 22 Nordeste 0 -- -- 35
2020-08-24 02:00:00 21 5 Este 12 Este 0 -- -- 35
2020-08-24 01:00:00 20.6 5 Norte 13 Norte 0 -- -- 37
2020-08-24 00:00:00 21.6 4 Norte 15 Norte 0 -- -- 35
2020-08-23 23:00:00 22.7 7 Noroeste 11 Noroeste 0 -- -- 33
2020-08-23 22:00:00 24.4 7 Noroeste 19 Norte 0 -- -- 30
2020-08-23 21:00:00 26.5 10 Noroeste 20 Noroeste 0 -- -- 28
2020-08-23 20:00:00 30 10 Noroeste 24 Noroeste 0 -- -- 24
2020-08-23 19:00:00 30.7 12 Noroeste 20 Noroeste 0 -- -- 22
2020-08-23 18:00:00 31.4 10 Noroeste 22 Noroeste 0 -- -- 22
2020-08-23 17:00:00 31.9 8 Noroeste 24 Noroeste 0 -- -- 22
2020-08-23 16:00:00 31 6 Sudoeste 14 Sur 0 -- -- 21
2020-08-23 15:00:00 31.1 4 Sudoeste 17 Noroeste 0 -- -- 22
2020-08-23 14:00:00 29.9 6 Sudoeste 14 Sur 0 -- -- 25
2020-08-23 13:00:00 28.5 6 Sudoeste 16 Sur 0 -- -- 26
2020-08-23 12:00:00 28 5 Sudeste 11 Sudeste 0 -- -- 25
2020-08-23 11:00:00 27.5 3 Oeste 8 Sudoeste 0 -- -- 26
2020-08-23 10:00:00 26.3 0 Calma 5 Sudeste 0 -- -- 28
2020-08-23 09:00:00 24 0 Calma 5 Norte 0 -- -- 33
2020-08-23 08:00:00 16.1 0 Calma 6 Norte 0 -- -- 47
2020-08-23 07:00:00 15.5 0 Calma 6 Norte 0 -- -- 47
2020-08-23 06:00:00 17.3 3 Este 8 Norte 0 -- -- 41
2020-08-23 05:00:00 18.3 3 Norte 13 Noroeste 0 -- -- 38
2020-08-23 04:00:00 20.3 7 Noroeste 15 Noroeste 0 -- -- 32
2020-08-23 03:00:00 21.1 9 Noroeste 18 Noroeste 0 -- -- 31
2020-08-23 02:00:00 21.4 9 Noroeste 20 Noroeste 0 -- -- 31
2020-08-23 01:00:00 22.1 10 Noroeste 27 Oeste 0 -- -- 30
2020-08-23 00:00:00 22.6 15 Noroeste 27 Noroeste 0 -- -- 30
2020-08-22 23:00:00 23.3 16 Noroeste 27 Noroeste 0 -- -- 29
2020-08-22 22:00:00 24.6 15 Noroeste 25 Noroeste 0 -- -- 26
2020-08-22 21:00:00 26 13 Noroeste 23 Noroeste 0 -- -- 25
2020-08-22 20:00:00 29.7 12 Noroeste 24 Noroeste 0 -- -- 18
2020-08-22 19:00:00 30.7 13 Noroeste 23 Oeste 0 -- -- 18
2020-08-22 18:00:00 30.9 13 Noroeste 26 Noroeste 0 -- -- 19
2020-08-22 17:00:00 30.3 15 Noroeste 26 Oeste 0 -- -- 25
2020-08-22 16:00:00 30.9 6 Oeste 20 Oeste 0 -- -- 32
2020-08-22 15:00:00 30.9 4 Oeste 16 Oeste 0 -- -- 33
2020-08-22 14:00:00 29.1 5 Oeste 15 Sudoeste 0 -- -- 36
2020-08-22 13:00:00 28.3 6 Sudoeste 13 Sudoeste 0 -- -- 38
2020-08-22 12:00:00 27.2 5 Sur 14 Sur 0 -- -- 43
2020-08-22 11:00:00 26.5 3 Sur 8 Sudeste 0 -- -- 47
2020-08-22 10:00:00 25.7 0 Calma 4 Oeste 0 -- -- 48
2020-08-22 09:00:00 22.9 0 Calma 5 Norte 0 -- -- 55
2020-08-22 08:00:00 16.2 3 Noroeste 8 Noroeste 0 -- -- 76
2020-08-22 07:00:00 15.1 3 Norte 6 Noroeste 0 -- -- 79
2020-08-22 06:00:00 16.1 0 Calma 9 Norte 0 -- -- 68
2020-08-22 05:00:00 17.5 5 Norte 15 Noroeste 0 -- -- 57
2020-08-22 04:00:00 18.6 10 Noroeste 26 Noroeste 0 -- -- 52
2020-08-22 03:00:00 19.5 15 Noroeste 32 Noroeste 0 -- -- 50
2020-08-22 02:00:00 20 17 Noroeste 28 Noroeste 0 -- -- 52
2020-08-22 01:00:00 20.4 16 Noroeste 27 Oeste 0 -- -- 68
2020-08-22 00:00:00 21.9 10 Noroeste 21 Noroeste 0 -- -- 64
2020-08-21 23:00:00 22.3 13 Noroeste 23 Noroeste 0 -- -- 65
2020-08-21 22:00:00 23.1 12 Noroeste 26 Noroeste 0 -- -- 62
2020-08-21 21:00:00 23.3 12 Noroeste 30 Noroeste 0 -- -- 65
2020-08-21 20:00:00 25 19 Noroeste 32 Oeste 0 -- -- 60
2020-08-21 19:00:00 26.7 13 Noroeste 24 Noroeste 0 -- -- 54
2020-08-21 18:00:00 26.8 15 Noroeste 31 Noroeste 0 -- -- 54
2020-08-21 17:00:00 29.3 18 Sur 35 Sur 0 -- -- 40
2020-08-21 16:00:00 29.8 14 Sudoeste 33 Sur 0 -- -- 41
2020-08-21 15:00:00 29.6 10 Sudoeste 30 Sudoeste 0 -- -- 40
2020-08-21 14:00:00 28.6 9 Sudoeste 30 Sur 0 -- -- 40
2020-08-21 13:00:00 27.3 11 Sudoeste 26 Sur 0 -- -- 47
2020-08-21 12:00:00 26 9 Sur 19 Sur 0 -- -- 54
2020-08-21 11:00:00 24.8 9 Sur 16 Sur 0 -- -- 59
2020-08-21 10:00:00 23.8 3 Sudoeste 8 Sudeste 0 -- -- 54
2020-08-21 09:00:00 23.2 2 Sudeste 5 Sudeste 0 -- -- 54
2020-08-21 08:00:00 16.9 0 Calma 6 Norte 0 -- -- 65
2020-08-21 07:00:00 16.6 4 Norte 8 Norte 0 -- -- 64
2020-08-21 06:00:00 17 0 Calma 5 Sudeste 0 -- -- 60
2020-08-21 05:00:00 18.2 0 Calma 4 Norte 0 -- -- 54
2020-08-21 04:00:00 19.1 3 Norte 10 Noroeste 0 -- -- 50
2020-08-21 03:00:00 19.9 7 Noroeste 27 Noroeste 0 -- -- 50
2020-08-21 02:00:00 21.4 12 Noroeste 22 Noroeste 0 -- -- 45
2020-08-21 01:00:00 20.8 2 Nordeste 9 Noroeste 0 -- -- 36
2020-08-21 00:00:00 21.1 3 Oeste 6 Oeste 0 -- -- 39